AirNav   TITAN Aviation Fuels
 
 359 users online  

LS67 Avoyelles Hospital Heliport
Marksville, Louisiana, USA

GOING TO MARKSVILLE?


FAA INFORMATION EFFECTIVE 08 SEPTEMBER 2022

Location

FAA Identifier: LS67
Lat/Long: 31-08-37.6900N 092-03-43.2200W
31-08.628167N 092-03.720333W
31.1438028,-92.0620056
(estimated)
Elevation: 75 ft. / 23 m (estimated)
Variation: 04E (1985)
From city: 2 miles N of MARKSVILLE, LA
Time zone: UTC -5 (UTC -6 during Standard Time)
Zip code: 71351

Heliport Operations

Heliport use: Private use, MEDICAL
Activation date: 03/1988
Control tower: no
ARTCC: HOUSTON CENTER
FSS: DE RIDDER FLIGHT SERVICE STATION
Attendance: UNATNDD
Wind indicator: yes
Segmented circle: no

Heliport Communications

WX ASOS at ESF (19 nm NW): 119.425 (318-484-9031)

Nearby radio navigation aids

VOR radial/distance  VOR name  Freq  Var
AEXr104/23.5ALEXANDRIA VORTAC116.1003E

Heliport Services

Runway Information

Helipad H1

Dimensions: 40 x 40 ft. / 12 x 12 m
Surface: concrete
Latitude: 31-08.628167N
Longitude: 092-03.720333W
Elevation: 75.0 ft.
Traffic pattern: leftleft

Heliport Ownership and Management from official FAA records

Ownership: Privately-owned
Owner: AVOYELLES HOSPITAL
PO BOX 249
MARKSVILLE, LA 71351
Phone 318-253-8611
Manager: EXECUTIVE DIRECTOR
PO BOX 249
MARKSVILLE, LA 71351
Phone 318-253-8611
CONTACT: DIRECTOR OF ENGINEERING, MIKE JOHNSON 318-253-8611

Additional Remarks

A52-H1 60' TREES 150' SW; 40' PLINE 300' N'; ANTENNA 250' NW OF PAD.
FOR CD CTC POLK APCH AT 337-531-2352.

Instrument Procedures

There are no published instrument procedures at LS67.

Some nearby airports with instrument procedures:

KMKV - Marksville Municipal Airport (3 nm S)
2R6 - Bunkie Municipal Airport (14 nm SW)
KESF - Esler Regional Airport (19 nm NW)
KAEX - Alexandria International Airport (27 nm NW)
KOPL - St Landry Parish Airport-Ahart Field (35 nm S)
 
Loc | Ops | Rwys | IFR | FBO | Links
Com | Nav | Svcs | Stats | Notes
Area around LS67 (Avoyelles Hospital Heliport)
 
Road maps at: MapQuest Bing Google
 
Aerial photo
No photo
 
Sectional chart

 
Airport distance calculator
Flying to Avoyelles Hospital Heliport? Find the distance to fly.

From to LS67

Sunrise and sunset
Times for 02-Oct-2022
 Local
(UTC-5)
 Zulu
(UTC)
Morning civil twilight06:3911:39
Sunrise07:0412:04
Sunset18:5223:52
Evening civil twilight19:1600:16

Current date and time
Zulu (UTC)  02-Oct-2022 08:49:56
Local (UTC-5)  02-Oct-2022 03:49:56
 
METAR
KESF 
19nm NW 
020824Z AUTO 00000KT 3/4SM BR CLR 09/09 A3007 RMK AO2 T00940089 $
KAEX 
28nm NW 
020753Z 00000KT 10SM CLR 12/10 A3006 RMK AO2 SLP181 T01170100 $
KOPL 
35nm S 
020835Z AUTO 00000KT 10SM CLR 10/09 A3006 RMK AO2 T00950094
K0R4 
38nm NE 
020835Z AUTO 00000KT 10SM CLR 09/08 A3006 RMK AO2 T00880083
TAF
KAEX 
28nm NW 
020520Z 0206/0306 00000KT P6SM SKC FM021700 02008KT P6SM FEW250 FM030100 VRB03KT P6SM FEW250
NOTAMs
Click for the latest NOTAMs
NOTAMs are issued by the DoD/FAA and will open in a separate window not controlled by AirNav.

 

 
 

Would you like to see your business listed on this page?

 If your business provides an interesting product or service to pilots, flight crews, aircraft, or users of the Avoyelles Hospital Heliport, you should consider listing it here.  To start the listing process, click on the button below
 
Add a business
 

Other Pages about Avoyelles Hospital Heliport

Update a link
 
Copyright © AirNav, LLC. All rights reserved. Privacy Policy  Contact